Time;durP1;ratioP1;P1;durP2;ratioP2;P2;SDS_P1;SDS_P2;PMS_P1;PMS_P2;Temp;Humidity;BMP_temperature;BMP_pressure;BME280_temperature;BME280_humidity;BME280_pressure;Samples;Min_cycle;Max_cycle;Signal;HPM_P1;HPM_P2
2022/04/20 00:00:29;;;;;;;13.27;12.23;;;;;;;;;;5020730;28;20036;-67
2022/04/20 00:02:55;;;;;;;13.45;12.55;;;;;;;;;;5027807;28;20481;-65
2022/04/20 00:05:21;;;;;;;13.52;12.52;;;;;;;;;;5024947;28;20037;-63
2022/04/20 00:07:46;;;;;;;13.55;12.55;;;;;;;;;;5033575;28;20024;-63
2022/04/20 00:10:12;;;;;;;13.85;12.80;;;;;;;;;;5030129;28;20069;-65
2022/04/20 00:12:37;;;;;;;14.23;12.93;;;;;;;;;;5039119;28;20087;-63
2022/04/20 00:15:04;;;;;;;13.98;12.90;;;;;;;;;;5031538;28;20411;-62
2022/04/20 00:17:29;;;;;;;12.73;11.93;;;;;;;;;;5034382;28;20049;-65
2022/04/20 00:19:55;;;;;;;14.02;12.88;;;;;;;;;;5015874;28;20117;-63
2022/04/20 00:22:20;;;;;;;13.65;12.65;;;;;;;;;;5019150;28;20527;-63
2022/04/20 00:24:46;;;;;;;14.48;13.43;;;;;;;;;;5020527;28;20428;-64
2022/04/20 00:27:11;;;;;;;14.55;13.50;;;;;;;;;;5019103;28;20030;-63
2022/04/20 00:29:37;;;;;;;13.70;12.68;;;;;;;;;;5023108;28;20048;-60
2022/04/20 00:32:03;;;;;;;14.00;12.85;;;;;;;;;;5015282;28;20034;-62
2022/04/20 00:34:29;;;;;;;13.65;12.63;;;;;;;;;;5019624;28;20026;-63
2022/04/20 00:36:55;;;;;;;13.73;12.77;;;;;;;;;;5023846;28;20060;-65
2022/04/20 00:39:21;;;;;;;14.27;13.13;;;;;;;;;;5010840;28;20045;-65
2022/04/20 00:41:48;;;;;;;13.50;12.60;;;;;;;;;;5026711;28;20390;-63
2022/04/20 00:44:14;;;;;;;14.38;13.07;;;;;;;;;;5016323;28;20048;-62
2022/04/20 00:46:41;;;;;;;14.45;13.18;;;;;;;;;;5033727;28;20045;-64
2022/04/20 00:49:09;;;;;;;14.13;13.02;;;;;;;;;;5018883;28;20508;-62
2022/04/20 00:51:34;;;;;;;14.98;13.65;;;;;;;;;;5017414;28;20080;-63
2022/04/20 00:54:01;;;;;;;14.25;13.05;;;;;;;;;;5018586;28;20072;-63
2022/04/20 00:56:28;;;;;;;14.18;13.02;;;;;;;;;;5017538;28;20325;-63
2022/04/20 00:58:57;;;;;;;14.23;13.23;;;;;;;;;;5029090;28;20388;-66
2022/04/20 01:01:23;;;;;;;13.93;12.82;;;;;;;;;;5044200;28;20080;-65
2022/04/20 01:03:49;;;;;;;13.65;12.65;;;;;;;;;;5042014;28;20073;-65
2022/04/20 01:06:33;;;;;;;13.95;12.85;;;;;;;;;;5047670;28;20033;-65
2022/04/20 01:09:06;;;;;;;13.88;12.77;;;;;;;;;;5023269;28;20053;-65
2022/04/20 01:11:38;;;;;;;14.18;13.07;;;;;;;;;;5017657;28;20045;-65
2022/04/20 01:14:31;;;;;;;14.10;12.90;;;;;;;;;;5023508;28;20034;-64
2022/04/20 01:17:32;;;;;;;13.90;12.90;;;;;;;;;;4983867;28;20038;-65
2022/04/20 01:20:29;;;;;;;13.82;12.82;;;;;;;;;;5009240;28;20041;-65
2022/04/20 01:23:21;;;;;;;13.65;12.65;;;;;;;;;;5011547;28;20339;-65
2022/04/20 01:26:10;;;;;;;15.02;13.75;;;;;;;;;;5024441;28;20048;-63
2022/04/20 01:29:01;;;;;;;14.43;13.25;;;;;;;;;;5008673;28;20052;-65
2022/04/20 01:31:35;;;;;;;13.95;12.98;;;;;;;;;;5026421;28;20067;-65
2022/04/20 01:34:24;;;;;;;13.88;12.77;;;;;;;;;;5019959;28;20041;-64
2022/04/20 01:36:49;;;;;;;14.00;12.90;;;;;;;;;;5019667;28;20035;-63
2022/04/20 01:39:16;;;;;;;13.85;12.80;;;;;;;;;;5022125;28;20496;-65
2022/04/20 01:41:43;;;;;;;14.70;13.52;;;;;;;;;;5015866;28;20037;-65
2022/04/20 01:44:10;;;;;;;14.82;13.32;;;;;;;;;;5017798;28;20069;-65
2022/04/20 01:46:44;;;;;;;13.40;12.50;;;;;;;;;;5024067;28;20053;-65
2022/04/20 01:49:30;;;;;;;14.18;12.88;;;;;;;;;;5016121;28;20056;-63
2022/04/20 01:52:14;;;;;;;14.13;13.13;;;;;;;;;;5018340;28;20044;-65
2022/04/20 01:55:16;;;;;;;14.35;13.25;;;;;;;;;;5023504;28;20041;-64
2022/04/20 01:58:00;;;;;;;14.00;12.85;;;;;;;;;;5015237;28;20113;-63
2022/04/20 02:00:55;;;;;;;14.13;13.13;;;;;;;;;;5006727;28;20519;-64
2022/04/20 02:03:32;;;;;;;14.02;12.93;;;;;;;;;;5018083;28;20034;-64
2022/04/20 02:06:10;;;;;;;14.07;12.98;;;;;;;;;;5023370;28;20030;-64
2022/04/20 02:08:59;;;;;;;13.63;12.65;;;;;;;;;;5026293;28;20443;-64
2022/04/20 02:11:43;;;;;;;13.55;12.45;;;;;;;;;;5024716;28;20482;-63
2022/04/20 02:14:18;;;;;;;14.52;13.43;;;;;;;;;;5022142;28;20045;-65
2022/04/20 02:16:50;;;;;;;14.05;13.00;;;;;;;;;;5029507;28;20041;-65
2022/04/20 02:19:48;;;;;;;14.10;13.00;;;;;;;;;;5014374;28;20116;-63
2022/04/20 02:22:19;;;;;;;15.00;14.00;;;;;;;;;;5022462;28;20042;-62
2022/04/20 02:24:45;;;;;;;14.65;13.45;;;;;;;;;;5025728;28;20389;-63
2022/04/20 02:27:11;;;;;;;14.48;13.30;;;;;;;;;;5021183;28;20437;-65
2022/04/20 02:29:38;;;;;;;14.68;13.27;;;;;;;;;;5025364;28;20106;-64
2022/04/20 02:32:06;;;;;;;14.75;13.27;;;;;;;;;;5013354;28;20034;-65
2022/04/20 02:34:31;;;;;;;14.60;13.35;;;;;;;;;;5019044;28;20038;-65
2022/04/20 02:36:58;;;;;;;14.27;13.20;;;;;;;;;;5021729;28;20511;-66
2022/04/20 02:39:24;;;;;;;14.00;13.00;;;;;;;;;;5015170;28;20069;-64
2022/04/20 02:41:50;;;;;;;13.73;12.65;;;;;;;;;;5013849;28;20037;-63
2022/04/20 02:44:15;;;;;;;14.18;13.18;;;;;;;;;;5025478;28;20120;-63
2022/04/20 02:46:43;;;;;;;14.20;13.23;;;;;;;;;;5014653;28;20084;-65
2022/04/20 02:49:08;;;;;;;13.98;12.93;;;;;;;;;;5021952;28;20065;-63
2022/04/20 02:51:34;;;;;;;14.55;13.35;;;;;;;;;;5022371;28;20080;-63
2022/04/20 02:54:01;;;;;;;13.93;12.85;;;;;;;;;;5016552;28;20063;-63
2022/04/20 02:56:28;;;;;;;14.25;13.15;;;;;;;;;;5032488;28;20022;-63
2022/04/20 02:58:54;;;;;;;14.50;13.20;;;;;;;;;;5020809;28;20492;-64
2022/04/20 03:01:21;;;;;;;13.90;12.85;;;;;;;;;;5018004;28;20042;-65
2022/04/20 03:03:48;;;;;;;13.98;12.93;;;;;;;;;;5029651;28;20492;-64
2022/04/20 03:06:27;;;;;;;13.82;12.80;;;;;;;;;;5034128;28;20038;-64
2022/04/20 03:08:54;;;;;;;13.50;12.55;;;;;;;;;;5032500;28;20041;-64
2022/04/20 03:11:23;;;;;;;14.55;13.45;;;;;;;;;;5026790;28;20497;-64
2022/04/20 03:13:49;;;;;;;13.63;12.73;;;;;;;;;;5023915;28;20104;-65
2022/04/20 03:16:16;;;;;;;13.90;12.85;;;;;;;;;;5016163;28;20120;-65
2022/04/20 03:18:42;;;;;;;13.73;12.73;;;;;;;;;;5018504;28;20116;-63
2022/04/20 03:21:17;;;;;;;13.80;12.90;;;;;;;;;;5021901;28;20481;-64
2022/04/20 03:23:42;;;;;;;14.23;13.13;;;;;;;;;;5024632;28;20029;-63
2022/04/20 03:26:11;;;;;;;13.77;12.77;;;;;;;;;;5006279;28;20080;-63
2022/04/20 03:29:00;;;;;;;14.38;12.93;;;;;;;;;;5020777;28;20045;-66
2022/04/20 03:31:26;;;;;;;13.68;12.57;;;;;;;;;;5017896;28;20512;-63
2022/04/20 03:33:52;;;;;;;14.23;13.13;;;;;;;;;;5015004;28;20080;-63
2022/04/20 03:36:18;;;;;;;14.43;12.25;;;;;;;;;;5021580;28;20045;-63
2022/04/20 03:38:43;;;;;;;14.10;13.00;;;;;;;;;;5022744;28;20034;-65
2022/04/20 03:41:09;;;;;;;13.88;12.88;;;;;;;;;;5022156;28;20036;-62
2022/04/20 03:43:35;;;;;;;13.65;12.75;;;;;;;;;;5025379;28;20477;-65
2022/04/20 03:46:00;;;;;;;13.55;12.65;;;;;;;;;;5017817;28;20067;-63
2022/04/20 03:48:26;;;;;;;13.13;12.02;;;;;;;;;;5023615;28;20052;-66
2022/04/20 03:50:54;;;;;;;13.18;12.30;;;;;;;;;;5019133;28;20049;-65
2022/04/20 03:53:20;;;;;;;13.00;12.10;;;;;;;;;;5026765;28;20039;-64
2022/04/20 03:55:48;;;;;;;14.40;13.07;;;;;;;;;;5019241;28;20108;-63
2022/04/20 03:58:15;;;;;;;13.73;12.73;;;;;;;;;;5021166;28;20037;-65
2022/04/20 04:00:43;;;;;;;13.63;12.52;;;;;;;;;;5016720;28;20038;-63
2022/04/20 04:03:10;;;;;;;13.25;12.25;;;;;;;;;;5014864;28;20037;-66
2022/04/20 04:05:37;;;;;;;13.23;12.23;;;;;;;;;;5018553;28;20037;-64
2022/04/20 04:08:13;;;;;;;13.50;12.50;;;;;;;;;;5022658;28;20455;-62
2022/04/20 04:10:40;;;;;;;13.82;12.90;;;;;;;;;;5024485;28;20331;-63
2022/04/20 04:13:06;;;;;;;13.43;12.43;;;;;;;;;;5017986;28;20140;-64
2022/04/20 04:15:33;;;;;;;13.00;12.10;;;;;;;;;;5016625;28;20123;-65
2022/04/20 04:18:01;;;;;;;14.43;13.13;;;;;;;;;;5013303;28;20043;-67
2022/04/20 04:20:33;;;;;;;14.68;13.35;;;;;;;;;;5018216;28;20033;-63
2022/04/20 04:23:00;;;;;;;14.25;13.05;;;;;;;;;;5020098;28;20464;-63
2022/04/20 04:25:43;;;;;;;13.68;12.68;;;;;;;;;;5025262;28;20107;-65
2022/04/20 04:28:12;;;;;;;13.68;12.65;;;;;;;;;;5024621;28;20119;-64
2022/04/20 04:30:42;;;;;;;13.65;12.68;;;;;;;;;;5017911;28;20045;-64
2022/04/20 04:33:08;;;;;;;13.57;12.45;;;;;;;;;;5022230;28;20552;-65
2022/04/20 04:35:35;;;;;;;14.43;13.02;;;;;;;;;;5023411;28;20221;-65
2022/04/20 04:38:01;;;;;;;13.52;12.43;;;;;;;;;;5025039;28;20041;-65
2022/04/20 04:40:31;;;;;;;13.50;12.53;;;;;;;;;;5016622;28;20038;-67
2022/04/20 04:42:57;;;;;;;13.93;12.88;;;;;;;;;;5014375;28;20292;-64
2022/04/20 04:51:06;;;;;;;13.63;12.52;;;;;;;;;;5022178;28;20087;-65
2022/04/20 04:53:32;;;;;;;13.60;12.30;;;;;;;;;;5035277;28;20036;-65
2022/04/20 04:56:00;;;;;;;13.68;12.60;;;;;;;;;;5022599;28;20509;-66
2022/04/20 04:58:25;;;;;;;14.10;12.90;;;;;;;;;;5016515;28;20065;-65
2022/04/20 05:00:53;;;;;;;14.65;13.48;;;;;;;;;;5021269;28;20099;-64
2022/04/20 05:03:25;;;;;;;13.90;12.82;;;;;;;;;;5020981;28;20030;-64
2022/04/20 05:05:51;;;;;;;13.65;12.55;;;;;;;;;;5025581;28;20040;-66
2022/04/20 05:08:36;;;;;;;13.02;11.85;;;;;;;;;;5027705;28;20041;-65
2022/04/20 05:11:03;;;;;;;13.07;12.02;;;;;;;;;;5040358;28;20395;-64
2022/04/20 05:13:28;;;;;;;12.95;12.05;;;;;;;;;;5011255;28;20095;-65
2022/04/20 05:15:54;;;;;;;12.88;11.85;;;;;;;;;;5018698;28;20459;-65
2022/04/20 05:18:20;;;;;;;13.55;12.55;;;;;;;;;;5021619;28;20076;-66
2022/04/20 05:20:45;;;;;;;12.90;11.98;;;;;;;;;;5010457;28;20061;-66
2022/04/20 05:23:13;;;;;;;12.90;12.10;;;;;;;;;;5031254;28;20033;-65
2022/04/20 05:25:39;;;;;;;13.05;12.20;;;;;;;;;;5016829;28;20113;-66
2022/04/20 05:28:06;;;;;;;12.77;11.88;;;;;;;;;;5031836;28;20042;-65
2022/04/20 05:30:32;;;;;;;13.00;12.02;;;;;;;;;;5023022;28;20056;-65
2022/04/20 05:32:59;;;;;;;13.20;12.23;;;;;;;;;;5010910;28;20441;-65
2022/04/20 05:35:27;;;;;;;13.23;12.32;;;;;;;;;;5035515;28;20045;-65
2022/04/20 05:43:43;;;;;;;13.38;12.32;;;;;;;;;;5010973;28;20112;-65
2022/04/20 05:46:14;;;;;;;13.07;12.18;;;;;;;;;;5010166;28;20049;-66
2022/04/20 05:48:46;;;;;;;12.98;11.98;;;;;;;;;;5014506;28;20045;-66
2022/04/20 05:51:14;;;;;;;12.68;11.77;;;;;;;;;;5018895;28;20080;-64
2022/04/20 05:53:40;;;;;;;13.15;12.25;;;;;;;;;;5020626;28;20334;-65
2022/04/20 05:56:07;;;;;;;13.90;12.43;;;;;;;;;;5034974;28;20053;-64
2022/04/20 05:58:39;;;;;;;13.52;12.50;;;;;;;;;;5015604;28;20040;-65
2022/04/20 06:01:05;;;;;;;13.15;12.25;;;;;;;;;;5012849;28;20034;-63
2022/04/20 06:03:49;;;;;;;13.55;12.48;;;;;;;;;;5025657;28;20119;-66
2022/04/20 06:06:34;;;;;;;13.15;12.23;;;;;;;;;;5026452;28;20048;-65
2022/04/20 06:09:06;;;;;;;13.20;12.13;;;;;;;;;;5024491;28;20098;-65
2022/04/20 06:12:01;;;;;;;13.27;12.30;;;;;;;;;;5018425;28;20053;-65
2022/04/20 06:14:49;;;;;;;13.32;12.32;;;;;;;;;;5043232;28;20446;-65
2022/04/20 06:17:32;;;;;;;13.32;12.32;;;;;;;;;;5012996;28;20045;-65
2022/04/20 06:19:58;;;;;;;13.77;12.68;;;;;;;;;;5016828;28;20045;-65
2022/04/20 06:22:44;;;;;;;13.55;12.55;;;;;;;;;;5009478;28;20104;-66
2022/04/20 06:25:22;;;;;;;13.98;13.00;;;;;;;;;;5028548;28;20112;-66
2022/04/20 06:28:06;;;;;;;13.85;12.80;;;;;;;;;;5020849;28;20038;-66
2022/04/20 06:30:52;;;;;;;13.80;12.80;;;;;;;;;;5020157;28;20045;-65
2022/04/20 06:33:36;;;;;;;13.95;12.95;;;;;;;;;;5014568;28;20025;-65
2022/04/20 06:36:10;;;;;;;13.88;12.70;;;;;;;;;;5017542;28;20160;-66
2022/04/20 06:39:05;;;;;;;14.00;13.10;;;;;;;;;;5022260;28;20113;-66
2022/04/20 06:41:51;;;;;;;14.30;13.18;;;;;;;;;;5015276;28;20052;-65
2022/04/20 06:44:46;;;;;;;13.50;12.63;;;;;;;;;;5023457;28;20048;-65
2022/04/20 06:47:20;;;;;;;14.10;13.00;;;;;;;;;;5028172;28;20037;-65
2022/04/20 06:50:18;;;;;;;13.98;13.07;;;;;;;;;;5017735;28;20509;-66
2022/04/20 06:58:31;;;;;;;14.23;13.02;;;;;;;;;;5031226;28;20041;-65
2022/04/20 07:00:59;;;;;;;14.75;13.55;;;;;;;;;;5025278;28;20038;-65
2022/04/20 07:04:03;;;;;;;14.20;12.85;;;;;;;;;;4985917;28;20042;-66
2022/04/20 07:06:52;;;;;;;;;;;;;;;;;;4966439;28;20110;-66
2022/04/20 07:09:35;;;;;;;13.85;12.95;;;;;;;;;;4970060;28;20020;-66
2022/04/20 07:12:14;;;;;;;15.43;13.32;;;;;;;;;;4969530;28;20042;-66
2022/04/20 07:14:40;;;;;;;13.75;12.85;;;;;;;;;;4966095;28;20612;-65
2022/04/20 07:17:07;;;;;;;13.90;13.00;;;;;;;;;;4969255;28;20046;-65
2022/04/20 07:19:42;;;;;;;14.05;13.15;;;;;;;;;;4986783;28;20038;-65
2022/04/20 07:22:47;;;;;;;14.40;13.50;;;;;;;;;;4947126;29;20130;-66
2022/04/20 07:25:25;;;;;;;14.48;13.57;;;;;;;;;;4984471;28;20058;-66
2022/04/20 07:28:09;;;;;;;13.90;13.00;;;;;;;;;;4987664;28;20100;-66
2022/04/20 07:31:04;;;;;;;14.52;13.43;;;;;;;;;;4974053;28;20126;-65
2022/04/20 07:33:45;;;;;;;14.35;13.40;;;;;;;;;;4988996;28;20080;-67
2022/04/20 07:36:31;;;;;;;14.88;13.82;;;;;;;;;;5024710;28;20048;-65
2022/04/20 07:39:17;;;;;;;14.68;13.70;;;;;;;;;;5004389;28;20072;-65
2022/04/20 07:42:21;;;;;;;14.23;13.18;;;;;;;;;;4990498;28;20091;-64
2022/04/20 07:45:10;;;;;;;13.73;12.82;;;;;;;;;;4993709;28;20053;-66
2022/04/20 07:47:56;;;;;;;14.25;13.25;;;;;;;;;;5038241;28;20449;-66
2022/04/20 07:50:40;;;;;;;14.07;13.15;;;;;;;;;;5034969;28;20032;-66
2022/04/20 07:53:07;;;;;;;14.45;13.52;;;;;;;;;;5022115;28;20034;-65
2022/04/20 07:55:46;;;;;;;14.18;13.27;;;;;;;;;;5016150;28;20042;-66
2022/04/20 07:58:32;;;;;;;14.43;13.52;;;;;;;;;;5010506;28;20501;-67
2022/04/20 08:01:03;;;;;;;14.05;13.00;;;;;;;;;;5011048;28;20109;-65
2022/04/20 08:03:58;;;;;;;14.60;13.57;;;;;;;;;;5020637;28;20040;-66
2022/04/20 08:06:44;;;;;;;14.68;13.57;;;;;;;;;;5021487;28;20075;-65
2022/04/20 08:09:09;;;;;;;13.52;12.60;;;;;;;;;;5036951;28;20055;-66
2022/04/20 08:11:35;;;;;;;14.02;13.10;;;;;;;;;;5039656;28;20081;-65
2022/04/20 08:14:11;;;;;;;13.48;12.48;;;;;;;;;;5008968;28;20033;-66
2022/04/20 08:16:44;;;;;;;13.65;12.75;;;;;;;;;;5023765;28;20113;-67
2022/04/20 08:19:26;;;;;;;13.77;12.77;;;;;;;;;;5041281;28;20437;-66
2022/04/20 08:22:14;;;;;;;14.00;13.00;;;;;;;;;;5032248;28;20056;-67
2022/04/20 08:24:43;;;;;;;14.13;12.95;;;;;;;;;;5022483;28;20425;-67
2022/04/20 08:27:09;;;;;;;13.65;12.65;;;;;;;;;;5009489;28;20073;-66
2022/04/20 08:29:36;;;;;;;14.43;13.15;;;;;;;;;;5013190;28;20092;-66
2022/04/20 08:32:02;;;;;;;13.98;13.07;;;;;;;;;;5015662;28;20033;-66
2022/04/20 08:34:28;;;;;;;13.63;12.68;;;;;;;;;;5013133;28;20076;-65
2022/04/20 08:36:53;;;;;;;14.40;13.50;;;;;;;;;;5009835;28;20512;-65
2022/04/20 08:39:19;;;;;;;15.18;13.75;;;;;;;;;;5027458;28;20100;-65
2022/04/20 08:41:49;;;;;;;14.77;13.57;;;;;;;;;;5045053;28;20069;-65
2022/04/20 08:44:26;;;;;;;13.80;12.90;;;;;;;;;;5028559;28;20580;-66
2022/04/20 08:46:54;;;;;;;14.90;13.70;;;;;;;;;;5008952;28;20049;-66
2022/04/20 08:49:20;;;;;;;14.38;13.38;;;;;;;;;;5032185;28;20534;-66
2022/04/20 08:54:33;;;;;;;14.20;13.20;;;;;;;;;;5020478;28;20034;-66
2022/04/20 08:57:17;;;;;;;13.95;13.05;;;;;;;;;;5008905;28;20048;-65
2022/04/20 08:59:51;;;;;;;14.63;13.57;;;;;;;;;;5015788;28;20052;-66
2022/04/20 09:02:20;;;;;;;14.52;13.32;;;;;;;;;;5016046;28;20439;-66
2022/04/20 09:04:46;;;;;;;14.85;13.85;;;;;;;;;;5015545;28;20067;-66
2022/04/20 09:07:18;;;;;;;14.15;13.25;;;;;;;;;;5021156;28;20109;-66
2022/04/20 09:09:44;;;;;;;14.68;13.57;;;;;;;;;;5042658;28;20033;-66
2022/04/20 09:12:22;;;;;;;13.75;12.85;;;;;;;;;;5027124;28;20068;-66
2022/04/20 09:14:50;;;;;;;14.10;13.00;;;;;;;;;;5045260;28;20031;-66
2022/04/20 09:17:19;;;;;;;13.95;13.05;;;;;;;;;;5034680;28;20154;-67
2022/04/20 09:19:49;;;;;;;13.73;12.88;;;;;;;;;;5023998;28;20049;-66
2022/04/20 09:22:36;;;;;;;13.65;12.75;;;;;;;;;;5028295;28;20037;-66
2022/04/20 09:25:11;;;;;;;13.45;12.65;;;;;;;;;;5027854;28;20471;-66
2022/04/20 09:27:40;;;;;;;13.77;12.77;;;;;;;;;;5018577;28;20052;-65
2022/04/20 09:30:10;;;;;;;;;;;;;;;;;;5016606;28;20435;-66
2022/04/20 09:32:39;;;;;;;;;;;;;;;;;;5013415;28;19916;-65
2022/04/20 09:35:09;;;;;;;13.40;12.60;;;;;;;;;;5039388;28;19913;-66
2022/04/20 09:37:36;;;;;;;13.23;12.32;;;;;;;;;;5020137;28;20065;-66
2022/04/20 09:40:37;;;;;;;13.77;12.57;;;;;;;;;;4987180;28;20065;-66
2022/04/20 09:43:06;;;;;;;13.40;12.60;;;;;;;;;;5012725;28;20056;-66
2022/04/20 09:45:33;;;;;;;;;;;;;;;;;;5026599;28;20037;-66
2022/04/20 09:51:07;;;;;;;13.38;12.50;;;;;;;;;;5013026;28;20084;-66
2022/04/20 09:53:33;;;;;;;13.60;12.70;;;;;;;;;;5024643;28;20029;-67
2022/04/20 09:56:17;;;;;;;12.40;11.63;;;;;;;;;;5019598;28;20481;-66
2022/04/20 09:58:46;;;;;;;13.73;12.70;;;;;;;;;;5015601;28;20545;-66
2022/04/20 10:01:27;;;;;;;13.02;12.23;;;;;;;;;;5017897;28;20064;-67
2022/04/20 10:03:54;;;;;;;13.52;12.43;;;;;;;;;;5023948;28;20052;-66
2022/04/20 10:06:19;;;;;;;12.18;11.32;;;;;;;;;;5021161;28;20388;-66
2022/04/20 10:08:45;;;;;;;12.98;12.07;;;;;;;;;;5014858;28;20485;-65
2022/04/20 10:11:13;;;;;;;13.15;12.20;;;;;;;;;;5012506;28;20037;-66
2022/04/20 10:13:39;;;;;;;13.13;12.15;;;;;;;;;;5022630;28;20022;-67
2022/04/20 10:16:09;;;;;;;12.65;11.60;;;;;;;;;;5014825;28;20260;-67
2022/04/20 10:18:39;;;;;;;12.02;11.23;;;;;;;;;;5012127;28;20485;-67
2022/04/20 10:21:08;;;;;;;12.93;11.93;;;;;;;;;;5021587;28;20061;-68
2022/04/20 10:23:35;;;;;;;12.48;11.63;;;;;;;;;;5023476;28;20146;-67
2022/04/20 10:26:06;;;;;;;12.15;11.30;;;;;;;;;;5011895;28;20092;-67
2022/04/20 10:29:04;;;;;;;13.15;12.30;;;;;;;;;;5013942;28;20045;-66
2022/04/20 10:32:22;;;;;;;12.77;11.90;;;;;;;;;;5017122;28;20421;-67
2022/04/20 10:34:51;;;;;;;13.23;12.38;;;;;;;;;;4987260;28;20049;-65
2022/04/20 10:37:31;;;;;;;13.57;12.77;;;;;;;;;;5007080;28;20037;-67
2022/04/20 10:40:14;;;;;;;12.90;12.00;;;;;;;;;;5016398;28;20040;-67
2022/04/20 10:42:40;;;;;;;12.95;11.95;;;;;;;;;;5022143;28;20041;-67
2022/04/20 10:45:08;;;;;;;13.32;12.30;;;;;;;;;;5030212;28;20083;-65
2022/04/20 10:47:40;;;;;;;13.02;12.07;;;;;;;;;;5023993;28;20037;-67
2022/04/20 10:50:20;;;;;;;12.90;12.10;;;;;;;;;;5017421;28;20041;-67
2022/04/20 10:52:52;;;;;;;12.50;11.70;;;;;;;;;;5023666;28;20037;-66
2022/04/20 10:55:35;;;;;;;12.40;11.60;;;;;;;;;;5031197;28;20476;-65
2022/04/20 10:58:15;;;;;;;12.15;11.13;;;;;;;;;;5019734;28;20064;-65
2022/04/20 11:00:41;;;;;;;12.40;11.60;;;;;;;;;;5023082;28;20052;-66
2022/04/20 11:03:10;;;;;;;11.68;10.98;;;;;;;;;;5017585;28;20407;-66
2022/04/20 11:05:55;;;;;;;11.85;11.05;;;;;;;;;;5019675;28;20066;-67
2022/04/20 11:08:25;;;;;;;12.48;11.68;;;;;;;;;;5017824;28;20050;-66
2022/04/20 11:20:15;;;;;;;12.18;11.38;;;;;;;;;;5023463;28;20119;-66
2022/04/20 11:22:45;;;;;;;12.30;11.30;;;;;;;;;;5038101;28;20033;-66
2022/04/20 11:25:11;;;;;;;11.95;11.25;;;;;;;;;;5019034;28;20038;-67
2022/04/20 11:27:37;;;;;;;12.40;11.65;;;;;;;;;;5023313;28;20041;-66
2022/04/20 11:30:05;;;;;;;12.77;11.90;;;;;;;;;;5019158;28;20394;-66
2022/04/20 11:32:31;;;;;;;13.00;12.00;;;;;;;;;;5011914;28;20037;-66
2022/04/20 11:35:11;;;;;;;13.02;11.93;;;;;;;;;;5028556;28;20321;-66
2022/04/20 11:37:39;;;;;;;12.55;11.63;;;;;;;;;;5024312;28;20041;-66
2022/04/20 11:40:12;;;;;;;13.13;12.13;;;;;;;;;;5020977;28;20130;-67
2022/04/20 11:42:38;;;;;;;12.65;11.82;;;;;;;;;;5014520;28;20041;-65
2022/04/20 11:45:06;;;;;;;13.02;12.23;;;;;;;;;;5028727;28;20100;-67
2022/04/20 11:47:42;;;;;;;13.00;12.10;;;;;;;;;;5026752;28;20033;-66
2022/04/20 11:50:15;;;;;;;13.25;12.32;;;;;;;;;;5011020;28;20116;-67
2022/04/20 11:52:58;;;;;;;13.13;12.32;;;;;;;;;;5024565;28;20033;-67
2022/04/20 11:55:46;;;;;;;13.48;12.30;;;;;;;;;;5023547;28;20121;-66
2022/04/20 11:58:13;;;;;;;13.18;12.13;;;;;;;;;;5014940;28;20026;-65
2022/04/20 12:00:41;;;;;;;13.15;12.23;;;;;;;;;;5018474;28;20595;-67
2022/04/20 12:03:07;;;;;;;12.75;11.95;;;;;;;;;;5015071;28;20026;-67
2022/04/20 12:05:33;;;;;;;13.68;12.50;;;;;;;;;;5027699;28;20103;-66
2022/04/20 12:07:58;;;;;;;12.95;12.15;;;;;;;;;;5045012;28;20033;-66
2022/04/20 12:10:24;;;;;;;12.73;11.82;;;;;;;;;;5042349;28;20483;-67
2022/04/20 12:12:50;;;;;;;13.38;12.48;;;;;;;;;;5029137;28;20032;-66
2022/04/20 12:15:20;;;;;;;13.40;12.60;;;;;;;;;;5041612;28;20065;-67
2022/04/20 12:17:46;;;;;;;14.60;13.35;;;;;;;;;;5029657;28;20044;-67
2022/04/20 12:20:12;;;;;;;14.05;13.15;;;;;;;;;;5055727;28;20029;-67
2022/04/20 12:22:39;;;;;;;13.30;12.40;;;;;;;;;;5028472;28;20042;-67
2022/04/20 12:25:10;;;;;;;13.63;12.73;;;;;;;;;;5022405;28;20045;-66
2022/04/20 12:27:53;;;;;;;13.52;12.52;;;;;;;;;;5022616;28;20042;-66
2022/04/20 12:30:34;;;;;;;13.23;12.32;;;;;;;;;;5021472;28;20038;-67
2022/04/20 12:33:04;;;;;;;13.48;12.48;;;;;;;;;;5022803;28;20045;-66
2022/04/20 12:35:30;;;;;;;13.50;12.35;;;;;;;;;;5017290;28;20034;-67
2022/04/20 12:38:00;;;;;;;12.77;11.98;;;;;;;;;;5029591;28;20048;-67
2022/04/20 12:40:32;;;;;;;13.57;12.68;;;;;;;;;;5035048;28;20504;-66
2022/04/20 12:43:05;;;;;;;13.07;12.18;;;;;;;;;;5031885;28;20039;-67
2022/04/20 12:45:33;;;;;;;13.07;12.27;;;;;;;;;;5033406;28;20107;-67
2022/04/20 12:48:07;;;;;;;13.80;12.73;;;;;;;;;;5013241;28;20087;-67
2022/04/20 12:50:38;;;;;;;13.20;12.40;;;;;;;;;;5020614;28;20423;-67
2022/04/20 12:53:04;;;;;;;13.65;12.60;;;;;;;;;;5021417;28;20116;-67
2022/04/20 12:55:37;;;;;;;13.60;12.73;;;;;;;;;;5017292;28;20349;-67
2022/04/20 13:03:42;;;;;;;13.43;12.43;;;;;;;;;;5019373;28;20041;-67
2022/04/20 13:06:13;;;;;;;12.95;12.05;;;;;;;;;;5007383;28;20485;-67
2022/04/20 13:08:45;;;;;;;12.70;11.90;;;;;;;;;;5021005;28;20042;-66
2022/04/20 13:11:16;;;;;;;13.43;12.40;;;;;;;;;;5016359;28;20040;-65
2022/04/20 13:13:41;;;;;;;13.25;12.30;;;;;;;;;;5018644;28;20041;-66
2022/04/20 13:16:10;;;;;;;13.13;12.02;;;;;;;;;;5012578;28;20038;-66
2022/04/20 13:18:39;;;;;;;12.80;11.90;;;;;;;;;;5024836;28;20245;-66
2022/04/20 13:21:05;;;;;;;12.43;11.45;;;;;;;;;;5010108;28;20026;-67
2022/04/20 13:23:31;;;;;;;12.80;11.93;;;;;;;;;;5019332;28;20092;-67
2022/04/20 13:28:41;;;;;;;12.80;12.00;;;;;;;;;;5019988;28;20037;-66
2022/04/20 13:31:06;;;;;;;12.45;11.65;;;;;;;;;;5013769;28;20404;-67
2022/04/20 13:33:32;;;;;;;13.02;11.93;;;;;;;;;;5010915;28;20041;-66
2022/04/20 13:35:58;;;;;;;12.65;11.75;;;;;;;;;;5013872;28;20367;-66
2022/04/20 13:38:23;;;;;;;12.43;11.63;;;;;;;;;;5008044;28;20069;-66
2022/04/20 13:40:49;;;;;;;13.00;12.20;;;;;;;;;;5014185;28;20038;-66
2022/04/20 13:43:15;;;;;;;13.32;12.35;;;;;;;;;;5018475;28;20040;-66
2022/04/20 13:45:41;;;;;;;13.13;12.23;;;;;;;;;;5021564;28;20030;-67
2022/04/20 13:48:07;;;;;;;12.77;11.98;;;;;;;;;;5010976;28;20121;-65
2022/04/20 13:50:33;;;;;;;13.10;12.10;;;;;;;;;;5018837;28;20065;-66
2022/04/20 13:53:00;;;;;;;13.30;12.43;;;;;;;;;;5019491;28;20121;-66
2022/04/20 13:55:25;;;;;;;13.65;12.52;;;;;;;;;;5018138;28;20032;-67
2022/04/20 13:57:51;;;;;;;13.30;12.40;;;;;;;;;;5012346;28;20034;-66
2022/04/20 14:00:17;;;;;;;13.13;12.23;;;;;;;;;;5013811;28;20026;-67
2022/04/20 14:02:43;;;;;;;13.45;12.55;;;;;;;;;;5009695;28;20073;-66
2022/04/20 14:05:10;;;;;;;12.95;12.05;;;;;;;;;;5013557;28;20038;-66
2022/04/20 14:07:37;;;;;;;12.88;11.98;;;;;;;;;;5020874;28;20053;-67
2022/04/20 14:10:14;;;;;;;13.00;12.20;;;;;;;;;;5022841;28;20029;-66
2022/04/20 14:12:41;;;;;;;15.05;13.73;;;;;;;;;;5014369;28;20041;-67
2022/04/20 14:15:07;;;;;;;13.88;12.88;;;;;;;;;;5016133;28;20034;-67
2022/04/20 14:17:32;;;;;;;14.27;13.38;;;;;;;;;;5021446;28;20040;-66
2022/04/20 14:19:59;;;;;;;13.82;12.82;;;;;;;;;;5017488;28;20116;-66
2022/04/20 14:22:24;;;;;;;14.43;13.52;;;;;;;;;;5012595;28;20037;-67
2022/04/20 14:24:50;;;;;;;14.60;13.50;;;;;;;;;;5018104;28;20087;-67
2022/04/20 14:32:48;;;;;;;14.13;12.98;;;;;;;;;;5018900;28;20125;-66
2022/04/20 14:35:13;;;;;;;14.70;13.70;;;;;;;;;;5015880;28;20038;-66
2022/04/20 14:37:39;;;;;;;13.13;12.23;;;;;;;;;;5032261;28;20377;-66
2022/04/20 14:40:05;;;;;;;13.73;12.82;;;;;;;;;;5025975;28;20163;-66
2022/04/20 14:42:31;;;;;;;13.27;12.38;;;;;;;;;;5021924;28;20033;-65
2022/04/20 14:44:57;;;;;;;13.57;12.57;;;;;;;;;;5022277;28;20051;-66
2022/04/20 14:47:23;;;;;;;13.35;12.55;;;;;;;;;;5023905;28;20444;-65
2022/04/20 14:49:48;;;;;;;13.98;12.95;;;;;;;;;;5026211;28;20045;-65
2022/04/20 14:52:16;;;;;;;13.35;12.45;;;;;;;;;;5019571;28;20029;-67
2022/04/20 14:54:44;;;;;;;13.68;12.85;;;;;;;;;;5023972;28;20548;-67
2022/04/20 14:57:10;;;;;;;13.15;12.32;;;;;;;;;;5019714;28;20091;-65
2022/04/20 14:59:36;;;;;;;12.85;11.95;;;;;;;;;;5019398;28;20659;-66
2022/04/20 15:02:04;;;;;;;12.38;11.48;;;;;;;;;;5018051;28;20029;-66
2022/04/20 15:04:31;;;;;;;11.95;11.25;;;;;;;;;;5013306;28;20084;-66
2022/04/20 15:06:57;;;;;;;12.35;11.55;;;;;;;;;;5021155;28;20041;-66
2022/04/20 15:09:26;;;;;;;12.13;11.23;;;;;;;;;;5020490;28;20025;-66
2022/04/20 15:11:57;;;;;;;12.63;11.60;;;;;;;;;;5025167;28;20029;-66
2022/04/20 15:14:23;;;;;;;12.50;11.60;;;;;;;;;;5028582;28;20292;-66
2022/04/20 15:16:49;;;;;;;13.00;12.10;;;;;;;;;;5020435;28;20033;-66
2022/04/20 15:19:17;;;;;;;13.02;12.10;;;;;;;;;;5010664;28;20042;-66
2022/04/20 15:21:43;;;;;;;12.85;11.88;;;;;;;;;;5040807;28;20037;-65
2022/04/20 15:24:10;;;;;;;12.07;11.27;;;;;;;;;;5013797;28;20495;-66
2022/04/20 15:26:36;;;;;;;12.48;11.68;;;;;;;;;;5011144;28;20042;-66
2022/04/20 15:29:03;;;;;;;12.20;11.40;;;;;;;;;;5019984;28;20128;-66
2022/04/20 15:31:29;;;;;;;12.63;11.73;;;;;;;;;;5017453;28;20622;-65